Time;durP1;ratioP1;P1;durP2;ratioP2;P2;SDS_P1;SDS_P2;PMS_P1;PMS_P2;Temp;Humidity;BMP_temperature;BMP_pressure;BME280_temperature;BME280_humidity;BME280_pressure;Samples;Min_cycle;Max_cycle;Signal;HPM_P1;HPM_P2
2023/04/25 00:01:48;;;;;;;4.90;4.60;;;;;;;5.41;nan;96291.28;4956843;28;20363;-68
2023/04/25 00:04:15;;;;;;;5.50;5.10;;;;;;;5.35;nan;96294.63;4950933;28;20276;-66
2023/04/25 00:06:43;;;;;;;5.17;4.77;;;;;;;5.26;nan;96287.78;4935696;28;20428;-67
2023/04/25 00:09:11;;;;;;;5.23;4.73;;;;;;;5.29;nan;96290.06;4956980;28;20214;-68
2023/04/25 00:11:38;;;;;;;4.53;4.20;;;;;;;5.26;nan;96288.59;4956423;28;20999;-69
2023/04/25 00:14:06;;;;;;;5.13;4.47;;;;;;;5.20;nan;96300.63;4911374;28;20241;-66
2023/04/25 00:16:35;;;;;;;5.00;4.57;;;;;;;5.13;nan;96290.97;4954235;28;20237;-68
2023/04/25 00:19:04;;;;;;;5.00;4.70;;;;;;;5.14;nan;96288.19;4959705;28;20209;-68
2023/04/25 00:21:32;;;;;;;5.07;4.67;;;;;;;5.19;nan;96292.91;4928870;28;20771;-69
2023/04/25 00:24:00;;;;;;;5.07;4.77;;;;;;;5.24;nan;96280.06;4931586;28;20217;-68
2023/04/25 00:26:28;;;;;;;4.80;4.50;;;;;;;5.30;nan;96281.19;4957359;28;20468;-66
2023/04/25 00:28:56;;;;;;;4.30;4.00;;;;;;;5.32;nan;96272.16;4933379;28;20209;-67
2023/04/25 00:31:24;;;;;;;5.10;4.70;;;;;;;5.18;nan;96265.84;4935610;28;20587;-67
2023/04/25 00:33:53;;;;;;;4.70;4.37;;;;;;;5.16;nan;96265.19;4961212;28;20240;-67
2023/04/25 00:36:21;;;;;;;5.13;4.67;;;;;;;5.21;nan;96268.09;4959229;28;20448;-69
2023/04/25 00:38:49;;;;;;;4.60;4.40;;;;;;;5.22;nan;96272.38;4936189;28;20598;-66
2023/04/25 00:41:16;;;;;;;4.43;4.13;;;;;;;5.27;nan;96276.28;4955691;28;20501;-69
2023/04/25 00:43:45;;;;;;;4.77;4.50;;;;;;;5.29;nan;96279.56;4962375;28;20205;-67
2023/04/25 00:46:12;;;;;;;5.17;4.87;;;;;;;5.34;nan;96274.59;4910285;28;20859;-69
2023/04/25 00:48:40;;;;;;;4.87;4.57;;;;;;;5.39;nan;96271.47;4963683;28;20209;-66
2023/04/25 00:51:12;;;;;;;4.63;4.37;;;;;;;5.43;nan;96268.28;4961118;28;20209;-66
2023/04/25 00:53:40;;;;;;;4.63;4.40;;;;;;;5.49;nan;96272.88;4938854;28;20225;-67
2023/04/25 00:56:08;;;;;;;4.47;4.17;;;;;;;5.54;nan;96264.47;4960842;28;20201;-67
2023/04/25 00:58:35;;;;;;;5.17;4.77;;;;;;;5.53;nan;96257.56;4958975;28;20961;-67
2023/04/25 01:01:03;;;;;;;5.00;4.70;;;;;;;5.59;nan;96266.56;4909164;28;20217;-66
2023/04/25 01:03:35;;;;;;;4.90;4.50;;;;;;;5.61;nan;96270.63;4957995;28;20198;-66
2023/04/25 01:06:03;;;;;;;4.57;4.30;;;;;;;5.61;nan;96257.50;4958520;28;20213;-66
2023/04/25 01:08:32;;;;;;;4.67;4.37;;;;;;;5.68;nan;96260.25;4931475;28;20246;-65
2023/04/25 01:11:00;;;;;;;5.50;5.10;;;;;;;5.69;nan;96253.19;4959703;28;20638;-67
2023/04/25 01:13:27;;;;;;;4.90;4.60;;;;;;;5.68;nan;96255.00;4960507;28;20233;-67
2023/04/25 01:15:56;;;;;;;5.33;5.00;;;;;;;5.69;nan;96250.56;4937826;28;20536;-66
2023/04/25 01:18:24;;;;;;;5.87;5.20;;;;;;;5.70;nan;96255.63;4937296;28;20245;-70
2023/04/25 01:20:52;;;;;;;5.13;4.80;;;;;;;5.71;nan;96261.72;4957013;28;20214;-66
2023/04/25 01:23:22;;;;;;;5.43;5.07;;;;;;;5.72;nan;96260.72;4936193;28;20433;-68
2023/04/25 01:25:50;;;;;;;5.70;5.20;;;;;;;5.67;nan;96263.88;4949977;28;20330;-68
2023/04/25 01:28:18;;;;;;;5.27;4.87;;;;;;;5.64;nan;96261.59;4961682;28;20327;-67
2023/04/25 01:30:46;;;;;;;5.13;4.73;;;;;;;5.62;nan;96258.34;4952930;28;20209;-66
2023/04/25 01:33:15;;;;;;;4.53;4.27;;;;;;;5.60;nan;96262.94;4897565;28;20869;-68
2023/04/25 01:35:42;;;;;;;4.63;4.23;;;;;;;5.56;nan;96262.47;4952644;28;20277;-69
2023/04/25 01:38:10;;;;;;;4.40;4.20;;;;;;;5.52;nan;96257.75;4948248;28;20626;-66
2023/04/25 01:40:40;;;;;;;4.33;4.10;;;;;;;5.44;nan;96251.53;4940827;28;20843;-68
2023/04/25 01:43:10;;;;;;;4.80;4.40;;;;;;;5.35;nan;96247.34;4932770;28;20427;-67
2023/04/25 01:45:39;;;;;;;4.90;4.50;;;;;;;5.35;nan;96252.59;4959708;28;20244;-69
2023/04/25 01:48:07;;;;;;;5.00;4.60;;;;;;;5.30;nan;96253.13;4907202;28;20778;-67
2023/04/25 01:50:35;;;;;;;6.17;4.83;;;;;;;5.29;nan;96251.47;4957002;28;20700;-68
2023/04/25 01:53:02;;;;;;;4.63;4.33;;;;;;;5.27;nan;96248.19;4949320;28;20729;-69
2023/04/25 01:55:30;;;;;;;5.27;4.47;;;;;;;5.28;nan;96254.28;4936850;28;20225;-68
2023/04/25 01:58:00;;;;;;;5.07;4.60;;;;;;;5.30;nan;96255.75;4960424;28;20229;-67
2023/04/25 02:00:28;;;;;;;4.27;3.97;;;;;;;5.33;nan;96251.94;4960024;28;20206;-66
2023/04/25 02:02:58;;;;;;;4.03;3.83;;;;;;;5.36;nan;96252.44;4906166;28;20456;-70
2023/04/25 02:05:26;;;;;;;4.97;4.60;;;;;;;5.39;nan;96259.13;4954140;28;20292;-68
2023/04/25 02:07:54;;;;;;;5.00;4.60;;;;;;;5.39;nan;96255.69;4954532;28;20280;-67
2023/04/25 02:10:21;;;;;;;4.37;4.07;;;;;;;5.38;nan;96251.44;4942203;28;20222;-67
2023/04/25 02:12:49;;;;;;;4.60;4.20;;;;;;;5.40;nan;96244.19;4959647;28;20213;-67
2023/04/25 02:15:18;;;;;;;4.77;4.47;;;;;;;5.50;nan;96260.53;4957052;28;20638;-67
2023/04/25 02:17:46;;;;;;;5.00;4.60;;;;;;;5.54;nan;96251.31;4900668;28;20671;-68
2023/04/25 02:20:13;;;;;;;4.30;4.00;;;;;;;5.58;nan;96254.44;4957214;28;20242;-67
2023/04/25 02:22:41;;;;;;;4.07;3.87;;;;;;;5.53;nan;96251.50;4956407;28;20275;-65
2023/04/25 02:25:11;;;;;;;5.03;4.63;;;;;;;5.52;nan;96245.41;4930754;28;20276;-67
2023/04/25 02:27:39;;;;;;;4.60;4.00;;;;;;;5.42;nan;96243.00;4941903;28;20511;-68
2023/04/25 02:30:08;;;;;;;4.23;3.93;;;;;;;5.45;nan;96240.03;4959347;28;20218;-67
2023/04/25 02:32:37;;;;;;;4.67;4.37;;;;;;;5.45;nan;96239.25;4904047;28;21464;-68
2023/04/25 02:35:06;;;;;;;4.17;3.97;;;;;;;5.41;nan;96237.94;4960528;28;20780;-66
2023/04/25 02:37:34;;;;;;;4.77;4.47;;;;;;;5.39;nan;96239.94;4954683;28;20468;-69
2023/04/25 02:40:02;;;;;;;5.20;4.70;;;;;;;5.37;nan;96229.59;4935611;28;21179;-67
2023/04/25 02:42:30;;;;;;;4.83;4.53;;;;;;;5.34;nan;96237.81;4936705;28;20563;-66
2023/04/25 02:44:58;;;;;;;4.33;3.97;;;;;;;5.35;nan;96240.28;4961273;28;20240;-66
2023/04/25 02:47:26;;;;;;;4.63;4.30;;;;;;;5.39;nan;96235.50;4893818;28;21527;-66
2023/04/25 02:49:55;;;;;;;4.87;4.47;;;;;;;5.40;nan;96234.50;4960410;28;20214;-69
2023/04/25 02:52:22;;;;;;;4.60;4.30;;;;;;;5.38;nan;96233.84;4953251;28;20268;-66
2023/04/25 02:54:50;;;;;;;5.33;4.40;;;;;;;5.39;nan;96234.69;4935304;28;20229;-67
2023/04/25 02:57:18;;;;;;;5.30;4.90;;;;;;;5.36;nan;96234.03;4944928;28;20230;-67
2023/04/25 02:59:46;;;;;;;5.03;4.73;;;;;;;5.39;nan;96224.19;4957123;28;20209;-68
2023/04/25 03:02:14;;;;;;;5.57;5.10;;;;;;;5.33;nan;96221.25;4932726;28;20209;-67
2023/04/25 03:04:41;;;;;;;4.70;4.30;;;;;;;5.30;nan;96216.34;4937286;28;20221;-68
2023/04/25 03:07:11;;;;;;;4.00;3.73;;;;;;;5.31;nan;96219.78;4958885;28;20565;-67
2023/04/25 03:09:38;;;;;;;4.50;4.20;;;;;;;5.31;nan;96212.75;4954589;28;20344;-67
2023/04/25 03:12:06;;;;;;;4.43;4.23;;;;;;;5.30;nan;96210.28;4899487;28;22410;-67
2023/04/25 03:14:34;;;;;;;4.77;4.47;;;;;;;5.34;nan;96215.00;4933505;28;20375;-67
2023/04/25 03:17:02;;;;;;;5.30;4.87;;;;;;;5.37;nan;96205.94;4953839;28;20237;-68
2023/04/25 03:19:30;;;;;;;5.10;4.60;;;;;;;5.42;nan;96205.44;4905129;28;20221;-68
2023/04/25 03:21:57;;;;;;;4.77;4.47;;;;;;;5.47;nan;96210.97;4956958;28;20228;-69
2023/04/25 03:24:27;;;;;;;5.20;4.80;;;;;;;5.47;nan;96198.66;4955165;28;20205;-67
2023/04/25 03:26:54;;;;;;;4.77;4.47;;;;;;;5.42;nan;96193.09;4930649;28;20754;-67
2023/04/25 03:29:24;;;;;;;4.47;4.27;;;;;;;5.41;nan;96190.66;4909175;28;22690;-66
2023/04/25 03:31:52;;;;;;;5.30;4.90;;;;;;;5.30;nan;96195.34;4957682;28;20210;-67
2023/04/25 03:34:21;;;;;;;4.67;4.37;;;;;;;5.35;nan;96195.63;4905705;28;21150;-69
2023/04/25 03:36:48;;;;;;;5.20;4.80;;;;;;;5.39;nan;96187.41;4954302;28;20292;-67
2023/04/25 03:39:16;;;;;;;3.87;3.67;;;;;;;5.38;nan;96191.03;4952490;28;20845;-69
2023/04/25 03:41:45;;;;;;;4.43;4.17;;;;;;;5.41;nan;96190.66;4934102;28;20965;-68
2023/04/25 03:44:13;;;;;;;4.50;4.20;;;;;;;5.38;nan;96197.06;4935323;28;20757;-68
2023/04/25 03:46:40;;;;;;;4.97;4.27;;;;;;;5.34;nan;96195.78;4954484;28;20246;-67
2023/04/25 03:49:08;;;;;;;4.57;4.17;;;;;;;5.31;nan;96196.16;4901857;28;20934;-66
2023/04/25 03:51:36;;;;;;;4.17;3.97;;;;;;;5.35;nan;96198.25;4960182;28;20202;-66
2023/04/25 03:54:04;;;;;;;5.07;4.67;;;;;;;5.33;nan;96202.03;4953297;28;20864;-65
2023/04/25 03:56:31;;;;;;;5.50;4.90;;;;;;;5.32;nan;96214.38;4957122;28;20230;-67
2023/04/25 03:59:01;;;;;;;5.53;4.47;;;;;;;5.29;nan;96219.16;4914384;28;20732;-66
2023/04/25 04:01:29;;;;;;;4.50;4.20;;;;;;;5.25;nan;96207.34;4958382;28;20209;-67
2023/04/25 04:03:57;;;;;;;6.60;5.00;;;;;;;5.33;nan;96212.53;4929867;28;20209;-66
2023/04/25 04:06:25;;;;;;;4.53;4.17;;;;;;;5.33;nan;96213.38;4935639;28;20241;-68
2023/04/25 04:08:53;;;;;;;5.03;4.73;;;;;;;5.29;nan;96213.88;4951791;28;20581;-66
2023/04/25 04:11:21;;;;;;;4.93;4.63;;;;;;;5.27;nan;96215.88;4958890;28;20494;-67
2023/04/25 04:13:48;;;;;;;5.00;4.70;;;;;;;5.27;nan;96213.25;4933285;28;20221;-66
2023/04/25 04:16:18;;;;;;;5.10;4.77;;;;;;;5.22;nan;96205.88;4934514;28;20234;-68
2023/04/25 04:18:46;;;;;;;5.33;4.80;;;;;;;5.24;nan;96205.72;4951688;28;20686;-66
2023/04/25 04:21:14;;;;;;;4.87;4.47;;;;;;;5.24;nan;96210.97;4914118;28;20213;-65
2023/04/25 04:23:42;;;;;;;5.10;4.80;;;;;;;5.22;nan;96204.09;4954711;28;20210;-65
2023/04/25 04:26:11;;;;;;;5.33;4.93;;;;;;;5.29;nan;96204.19;4960286;28;20205;-66
2023/04/25 04:28:38;;;;;;;5.07;4.77;;;;;;;5.32;nan;96203.88;4930899;28;20210;-67
2023/04/25 04:31:07;;;;;;;4.70;4.40;;;;;;;5.39;nan;96203.16;4936713;28;20737;-67
2023/04/25 04:33:36;;;;;;;4.80;4.50;;;;;;;5.41;nan;96198.53;4954763;28;20245;-66
2023/04/25 04:36:04;;;;;;;5.10;4.70;;;;;;;5.41;nan;96195.91;4908249;28;20321;-65
2023/04/25 04:38:32;;;;;;;5.37;5.07;;;;;;;5.45;nan;96205.09;4946605;28;21061;-65
2023/04/25 04:41:00;;;;;;;4.90;4.50;;;;;;;5.44;nan;96203.44;4950373;28;20205;-65
2023/04/25 04:43:28;;;;;;;5.30;4.90;;;;;;;5.46;nan;96202.25;4931040;28;21189;-67
2023/04/25 04:45:56;;;;;;;4.60;4.30;;;;;;;5.48;nan;96192.41;4961199;28;20213;-66
2023/04/25 04:48:24;;;;;;;4.67;4.37;;;;;;;5.47;nan;96196.00;4933046;28;20233;-65
2023/04/25 04:50:53;;;;;;;4.70;4.40;;;;;;;5.53;nan;96199.75;4906576;28;20221;-66
2023/04/25 04:53:21;;;;;;;5.10;4.70;;;;;;;5.57;nan;96193.16;4952736;28;20214;-67
2023/04/25 04:55:49;;;;;;;5.00;4.50;;;;;;;5.54;nan;96196.13;4950554;28;20401;-66
2023/04/25 04:58:17;;;;;;;4.80;4.10;;;;;;;5.65;nan;96200.16;4941183;28;20229;-66
2023/04/25 05:00:46;;;;;;;4.40;4.00;;;;;;;5.70;nan;96200.44;4953479;28;20218;-66
2023/04/25 05:03:13;;;;;;;5.30;4.90;;;;;;;5.77;nan;96197.94;4933758;28;20245;-67
2023/04/25 05:05:42;;;;;;;4.47;4.17;;;;;;;5.90;nan;96194.69;4906674;28;20264;-66
2023/04/25 05:08:11;;;;;;;4.40;4.10;;;;;;;5.98;nan;96202.50;4957875;28;20237;-66
2023/04/25 05:10:38;;;;;;;4.70;4.40;;;;;;;6.08;nan;96203.09;4946924;28;20438;-66
2023/04/25 05:13:06;;;;;;;4.43;4.13;;;;;;;6.15;nan;96203.19;4961941;28;20209;-66
2023/04/25 05:15:34;;;;;;;4.77;4.47;;;;;;;6.14;nan;96198.09;4932378;28;20452;-66
2023/04/25 05:18:01;;;;;;;4.90;4.50;;;;;;;6.24;nan;96196.00;4940512;28;20241;-66
2023/04/25 05:20:29;;;;;;;5.10;4.60;;;;;;;6.32;nan;96195.94;4908026;28;21080;-65
2023/04/25 05:22:57;;;;;;;5.40;5.00;;;;;;;6.31;nan;96194.31;4931460;28;22754;-67
2023/04/25 05:25:26;;;;;;;7.53;5.00;;;;;;;6.31;nan;96196.13;4927876;28;20213;-66
2023/04/25 05:27:54;;;;;;;6.20;5.07;;;;;;;6.24;nan;96198.66;4962827;28;20237;-66
2023/04/25 05:30:22;;;;;;;6.03;5.03;;;;;;;6.13;nan;96199.09;4921043;28;20249;-65
2023/04/25 05:32:50;;;;;;;4.97;4.67;;;;;;;6.05;nan;96203.44;4941137;28;20295;-67
2023/04/25 05:35:18;;;;;;;4.67;4.37;;;;;;;6.06;nan;96197.19;4931214;28;20214;-64
2023/04/25 05:37:46;;;;;;;5.40;4.90;;;;;;;6.08;nan;96192.56;4942415;28;20230;-68
2023/04/25 05:40:14;;;;;;;5.23;4.77;;;;;;;6.18;nan;96200.19;4964130;28;20243;-67
2023/04/25 05:42:43;;;;;;;5.63;4.97;;;;;;;6.45;nan;96197.13;4959610;28;20591;-69
2023/04/25 05:45:11;;;;;;;5.13;4.73;;;;;;;6.90;nan;96200.50;4939206;28;20678;-66
2023/04/25 05:47:38;;;;;;;4.70;4.40;;;;;;;7.21;nan;96198.63;4926976;28;20348;-67
2023/04/25 05:50:08;;;;;;;4.77;4.37;;;;;;;7.32;nan;96203.41;4957166;28;20578;-67
2023/04/25 05:52:36;;;;;;;4.80;4.50;;;;;;;7.36;nan;96198.56;4923411;28;20470;-66
2023/04/25 05:55:04;;;;;;;4.77;4.30;;;;;;;7.34;nan;96203.19;4963413;28;20271;-66
2023/04/25 05:57:32;;;;;;;4.77;4.37;;;;;;;7.53;nan;96197.31;4955096;28;20428;-69
2023/04/25 06:00:01;;;;;;;8.40;4.63;;;;;;;7.72;nan;96186.31;4961107;28;20240;-70
2023/04/25 06:02:28;;;;;;;4.67;4.27;;;;;;;8.08;nan;96190.66;4900474;28;20929;-67
2023/04/25 06:04:56;;;;;;;4.47;4.17;;;;;;;8.45;nan;96186.00;4959480;28;20210;-68
2023/04/25 06:07:24;;;;;;;4.23;3.93;;;;;;;8.25;nan;96181.41;4912347;28;20694;-67
2023/04/25 06:09:53;;;;;;;4.10;3.80;;;;;;;8.39;nan;96176.22;4960265;28;20209;-68
2023/04/25 06:12:20;;;;;;;3.70;3.40;;;;;;;8.52;nan;96172.84;4958485;28;20244;-67
2023/04/25 06:14:48;;;;;;;3.87;3.60;;;;;;;8.43;nan;96177.47;4962038;28;20222;-69
2023/04/25 06:17:17;;;;;;;3.90;3.53;;;;;;;8.50;nan;96180.16;4927378;28;20237;-67
2023/04/25 06:19:45;;;;;;;4.60;4.27;;;;;;;8.64;nan;96175.75;4956601;28;20220;-69
2023/04/25 06:22:12;;;;;;;3.90;3.70;;;;;;;8.86;nan;96175.66;4916257;28;20221;-66
2023/04/25 06:24:40;;;;;;;5.13;4.27;;;;;;;9.06;nan;96179.16;4956380;28;20212;-69
2023/04/25 06:27:08;;;;;;;4.93;3.63;;;;;;;9.18;nan;96168.81;4961899;28;20582;-68
2023/04/25 06:29:35;;;;;;;4.43;3.80;;;;;;;9.48;nan;96176.41;4961249;28;20276;-67
2023/04/25 06:32:03;;;;;;;4.00;3.70;;;;;;;9.66;nan;96165.22;4935317;28;20213;-67
2023/04/25 06:34:32;;;;;;;4.33;3.53;;;;;;;9.87;nan;96175.81;4931246;28;20225;-68
2023/04/25 06:37:00;;;;;;;4.20;3.93;;;;;;;9.87;nan;96173.16;4953007;28;20233;-68
2023/04/25 06:39:27;;;;;;;3.63;3.33;;;;;;;9.99;nan;96174.97;4908657;28;20778;-67
2023/04/25 06:41:55;;;;;;;3.33;3.23;;;;;;;9.93;nan;96174.97;4961652;28;20350;-66
2023/04/25 06:44:25;;;;;;;3.47;3.27;;;;;;;9.51;nan;96169.91;4949170;28;20222;-65
2023/04/25 06:46:53;;;;;;;3.63;3.33;;;;;;;9.33;nan;96179.22;4934688;28;20291;-65
2023/04/25 06:49:21;;;;;;;3.73;3.43;;;;;;;9.26;nan;96173.91;4937944;28;20366;-65
2023/04/25 06:51:50;;;;;;;3.37;3.17;;;;;;;9.10;nan;96176.94;4962826;28;20217;-67
2023/04/25 06:54:17;;;;;;;3.53;3.33;;;;;;;9.12;nan;96169.63;4909549;28;20446;-66
2023/04/25 06:56:46;;;;;;;4.40;4.10;;;;;;;9.26;nan;96173.91;4958336;28;20231;-66
2023/04/25 06:59:14;;;;;;;4.63;4.20;;;;;;;9.37;nan;96179.66;4962229;28;20202;-65
2023/04/25 07:01:41;;;;;;;4.07;3.67;;;;;;;9.25;nan;96187.34;4935680;28;21034;-67
2023/04/25 07:04:09;;;;;;;3.90;3.60;;;;;;;9.11;nan;96179.38;4944490;28;20213;-65
2023/04/25 07:06:42;;;;;;;3.63;3.33;;;;;;;9.26;nan;96183.69;4958650;28;20872;-68
2023/04/25 07:09:11;;;;;;;3.60;3.30;;;;;;;9.65;nan;96176.00;4884590;28;20799;-67
2023/04/25 07:11:38;;;;;;;3.90;3.60;;;;;;;9.50;nan;96178.84;4960248;28;20218;-65
2023/04/25 07:14:06;;;;;;;4.20;3.80;;;;;;;9.59;nan;96182.94;4945060;28;21039;-67
2023/04/25 07:16:34;;;;;;;3.67;3.37;;;;;;;9.38;nan;96176.78;4952295;28;20268;-65
2023/04/25 07:19:02;;;;;;;3.80;3.40;;;;;;;9.19;nan;96181.00;4922372;28;21033;-67
2023/04/25 07:21:30;;;;;;;3.70;3.50;;;;;;;9.30;nan;96186.75;4962767;28;20269;-65
2023/04/25 07:23:58;;;;;;;3.33;3.13;;;;;;;9.19;nan;96182.84;4901022;28;20460;-65
2023/04/25 07:26:27;;;;;;;3.43;3.13;;;;;;;9.13;nan;96184.47;4957545;28;21086;-65
2023/04/25 07:28:55;;;;;;;3.50;3.30;;;;;;;9.21;nan;96180.84;4943141;28;20452;-66
2023/04/25 07:31:22;;;;;;;3.83;3.60;;;;;;;9.16;nan;96186.69;4950523;28;20304;-67
2023/04/25 07:33:50;;;;;;;3.30;3.00;;;;;;;9.00;nan;96187.06;4934179;28;20217;-66
2023/04/25 07:36:18;;;;;;;3.60;3.30;;;;;;;8.96;nan;96192.75;4942067;28;20839;-67
2023/04/25 07:38:46;;;;;;;3.50;3.20;;;;;;;8.85;nan;96169.53;4912321;28;20298;-65
2023/04/25 07:41:14;;;;;;;3.63;3.33;;;;;;;8.81;nan;96190.25;4960896;28;20224;-66
2023/04/25 07:43:42;;;;;;;4.20;3.63;;;;;;;8.82;nan;96183.13;4956600;28;20643;-64
2023/04/25 07:46:10;;;;;;;4.23;3.83;;;;;;;8.79;nan;96191.47;4939877;28;20217;-67
2023/04/25 07:48:38;;;;;;;3.70;3.50;;;;;;;8.87;nan;96188.63;4934948;28;20206;-64
2023/04/25 07:51:07;;;;;;;2.90;2.80;;;;;;;8.82;nan;96191.06;4942394;28;20455;-65
2023/04/25 07:53:37;;;;;;;4.10;3.77;;;;;;;8.73;nan;96189.59;4942295;28;20264;-65
2023/04/25 07:56:06;;;;;;;3.47;3.27;;;;;;;8.90;nan;96190.09;4930294;28;20427;-67
2023/04/25 07:58:33;;;;;;;3.83;3.60;;;;;;;8.98;nan;96192.53;4953302;28;20454;-65
2023/04/25 08:01:02;;;;;;;3.60;3.40;;;;;;;8.88;nan;96192.91;4940842;28;20645;-66
2023/04/25 08:03:30;;;;;;;3.40;3.20;;;;;;;8.68;nan;96196.28;4938069;28;20248;-65
2023/04/25 08:05:58;;;;;;;3.60;3.40;;;;;;;8.58;nan;96200.31;4946799;28;20221;-66
2023/04/25 08:08:25;;;;;;;3.90;3.50;;;;;;;8.28;nan;96190.78;4931677;28;21042;-68
2023/04/25 08:10:53;;;;;;;3.77;3.57;;;;;;;8.28;nan;96198.69;4908555;28;20460;-67
2023/04/25 08:13:21;;;;;;;4.63;4.23;;;;;;;8.34;nan;96194.47;4957510;28;20840;-67
2023/04/25 08:15:48;;;;;;;4.70;4.30;;;;;;;8.35;nan;96207.47;4957062;28;20222;-66
2023/04/25 08:18:17;;;;;;;5.03;4.60;;;;;;;8.44;nan;96204.66;4923424;28;20726;-67
2023/04/25 08:20:45;;;;;;;4.17;3.90;;;;;;;8.34;nan;96203.19;4957418;28;20205;-65
2023/04/25 08:23:13;;;;;;;3.90;3.60;;;;;;;8.44;nan;96204.66;4939880;28;20213;-66
2023/04/25 08:25:41;;;;;;;4.40;4.10;;;;;;;8.57;nan;96203.94;4927946;28;20209;-66
2023/04/25 08:28:09;;;;;;;4.33;4.10;;;;;;;8.91;nan;96202.28;4947152;28;20295;-68
2023/04/25 08:30:37;;;;;;;4.63;4.33;;;;;;;9.40;nan;96201.19;4953125;28;20239;-64
2023/04/25 08:33:05;;;;;;;3.93;3.63;;;;;;;9.81;nan;96198.59;4941956;28;20514;-67
2023/04/25 08:35:34;;;;;;;3.87;3.67;;;;;;;10.16;nan;96197.56;4937364;28;20477;-64
2023/04/25 08:38:02;;;;;;;3.67;3.47;;;;;;;10.45;nan;96198.16;4955788;28;21472;-66
2023/04/25 08:40:29;;;;;;;3.77;3.57;;;;;;;10.32;nan;96201.63;4941016;28;20213;-64
2023/04/25 08:42:58;;;;;;;3.93;3.70;;;;;;;10.06;nan;96204.09;4906357;28;20423;-67
2023/04/25 08:45:27;;;;;;;5.20;4.03;;;;;;;9.83;nan;96215.06;4960969;28;20269;-66
2023/04/25 08:47:56;;;;;;;4.37;4.17;;;;;;;9.56;nan;96212.41;4955552;28;20500;-67
2023/04/25 08:50:26;;;;;;;3.80;3.60;;;;;;;9.34;nan;96214.41;4935488;28;20213;-65
2023/04/25 08:52:55;;;;;;;4.23;3.50;;;;;;;9.23;nan;96211.31;4955647;28;20437;-68
2023/04/25 08:55:23;;;;;;;4.70;4.30;;;;;;;9.31;nan;96220.09;4942630;28;20590;-64
2023/04/25 08:57:51;;;;;;;4.50;4.10;;;;;;;9.24;nan;96231.44;4913454;28;20533;-66
2023/04/25 09:00:19;;;;;;;4.80;4.40;;;;;;;9.02;nan;96225.47;4960201;28;20217;-69
2023/04/25 09:02:47;;;;;;;4.77;4.37;;;;;;;8.87;nan;96233.53;4958116;28;20299;-67
2023/04/25 09:05:15;;;;;;;4.77;4.27;;;;;;;8.85;nan;96238.22;4943645;28;20221;-68
2023/04/25 09:07:43;;;;;;;4.03;3.83;;;;;;;8.91;nan;96247.19;4957107;28;20226;-66
2023/04/25 09:10:12;;;;;;;4.93;4.60;;;;;;;9.09;nan;96242.19;4944495;28;20263;-67
2023/04/25 09:12:40;;;;;;;4.83;4.30;;;;;;;9.43;nan;96239.66;4914123;28;20221;-65
2023/04/25 09:15:10;;;;;;;4.03;3.83;;;;;;;9.76;nan;96246.81;4962582;28;20208;-66
2023/04/25 09:17:40;;;;;;;4.40;4.10;;;;;;;10.10;nan;96249.47;4957450;28;20230;-66
2023/04/25 09:20:09;;;;;;;4.53;4.23;;;;;;;9.76;nan;96253.94;4935764;28;20210;-69
2023/04/25 09:22:37;;;;;;;4.50;4.10;;;;;;;9.36;nan;96260.75;4958039;28;21076;-65
2023/04/25 09:25:09;;;;;;;4.23;3.90;;;;;;;8.98;nan;96266.53;4944161;28;23074;-64
2023/04/25 09:27:50;;;;;;;4.20;3.90;;;;;;;9.00;nan;96267.13;4939851;28;20855;-64
2023/04/25 09:30:18;;;;;;;4.77;4.47;;;;;;;8.85;nan;96279.69;4963771;28;20218;-66
2023/04/25 09:32:46;;;;;;;3.67;3.47;;;;;;;8.39;nan;96287.09;4946496;28;20213;-65
2023/04/25 09:35:24;;;;;;;4.40;4.10;;;;;;;8.18;nan;96293.22;4956230;28;20218;-67
2023/04/25 09:37:52;;;;;;;4.60;3.70;;;;;;;7.76;nan;96298.31;4933691;28;20277;-67
2023/04/25 09:40:19;;;;;;;3.40;3.20;;;;;;;7.34;nan;96298.91;4953298;28;20271;-66
2023/04/25 09:42:48;;;;;;;4.13;3.83;;;;;;;7.24;nan;96308.91;4894073;28;20210;-65
2023/04/25 09:45:16;;;;;;;4.77;4.43;;;;;;;7.05;nan;96320.84;4961590;28;20213;-66
2023/04/25 09:47:44;;;;;;;6.73;6.23;;;;;;;6.86;nan;96320.38;4950846;28;20268;-64
2023/04/25 09:50:15;;;;;;;4.53;4.23;;;;;;;6.95;nan;96316.63;4966327;28;20225;-68
2023/04/25 09:52:42;;;;;;;3.90;3.70;;;;;;;7.09;nan;96330.00;4924181;28;20218;-64
2023/04/25 09:55:10;;;;;;;4.13;3.83;;;;;;;7.06;nan;96322.47;4960202;28;20220;-66
2023/04/25 09:57:39;;;;;;;4.03;3.73;;;;;;;7.12;nan;96320.91;4944598;28;20300;-65
2023/04/25 10:00:12;;;;;;;3.40;3.20;;;;;;;7.38;nan;96305.41;4911913;28;20289;-66
2023/04/25 10:02:42;;;;;;;3.83;3.40;;;;;;;8.00;nan;96315.59;4953084;28;20202;-65
2023/04/25 10:05:11;;;;;;;3.80;3.60;;;;;;;7.88;nan;96317.09;4962400;28;20202;-67
2023/04/25 10:07:39;;;;;;;3.47;3.27;;;;;;;8.13;nan;96306.97;4928511;28;20233;-63
2023/04/25 10:10:08;;;;;;;3.57;3.27;;;;;;;8.15;nan;96322.63;4959647;28;20722;-68
2023/04/25 10:12:37;;;;;;;4.10;3.80;;;;;;;8.12;nan;96310.63;4939386;28;20224;-66
2023/04/25 10:15:06;;;;;;;3.23;3.03;;;;;;;8.26;nan;96314.19;4901704;28;20850;-67
2023/04/25 10:17:36;;;;;;;3.03;2.83;;;;;;;8.61;nan;96310.81;4962794;28;20237;-65
2023/04/25 10:20:04;;;;;;;3.13;2.93;;;;;;;8.53;nan;96312.59;4934121;28;20236;-64
2023/04/25 10:22:35;;;;;;;2.87;2.67;;;;;;;8.71;nan;96308.63;4926505;28;20222;-66
2023/04/25 10:25:04;;;;;;;3.30;3.10;;;;;;;9.05;nan;96301.72;4958564;28;20930;-66
2023/04/25 10:27:32;;;;;;;2.93;2.83;;;;;;;9.23;nan;96287.16;4919862;28;20237;-67
2023/04/25 10:30:04;;;;;;;2.97;2.87;;;;;;;9.30;nan;96290.66;4908160;28;20210;-66
2023/04/25 10:32:32;;;;;;;2.37;2.27;;;;;;;8.93;nan;96288.25;4958892;28;20213;-65
2023/04/25 10:35:13;;;;;;;3.10;2.90;;;;;;;8.99;nan;96297.22;4957079;28;20738;-66
2023/04/25 10:37:59;;;;;;;2.77;2.57;;;;;;;9.41;nan;96290.06;4927470;28;20386;-66
2023/04/25 10:40:27;;;;;;;2.53;2.43;;;;;;;9.40;nan;96299.00;4954568;28;20224;-66
2023/04/25 10:42:54;;;;;;;2.73;2.60;;;;;;;9.26;nan;96294.69;4938646;28;20391;-67
2023/04/25 10:45:22;;;;;;;2.97;2.77;;;;;;;9.23;nan;96298.53;4952950;28;20661;-66
2023/04/25 10:47:50;;;;;;;2.83;2.63;;;;;;;9.29;nan;96296.94;4923568;28;20543;-66
2023/04/25 10:50:19;;;;;;;2.70;2.60;;;;;;;9.48;nan;96282.16;4954394;28;20700;-67
2023/04/25 10:52:47;;;;;;;2.90;2.70;;;;;;;9.56;nan;96287.25;4953670;28;20307;-68
2023/04/25 10:55:15;;;;;;;2.83;2.73;;;;;;;9.84;nan;96281.03;4936528;28;20279;-65
2023/04/25 10:57:43;;;;;;;3.40;2.83;;;;;;;9.92;nan;96282.66;4958489;28;20224;-67
2023/04/25 11:00:14;;;;;;;3.13;2.93;;;;;;;10.07;nan;96287.78;4935935;28;20232;-68
2023/04/25 11:02:44;;;;;;;2.80;2.60;;;;;;;10.16;nan;96279.63;4903859;28;20209;-67
2023/04/25 11:05:21;;;;;;;2.80;2.70;;;;;;;10.67;nan;96286.94;4960774;28;20214;-69
2023/04/25 11:07:51;;;;;;;3.53;3.33;;;;;;;10.99;nan;96278.31;4955408;28;20842;-66
2023/04/25 11:10:32;;;;;;;3.00;2.90;;;;;;;11.22;nan;96277.81;4936426;28;20213;-66
2023/04/25 11:13:01;;;;;;;2.90;2.80;;;;;;;11.13;nan;96274.59;4962602;28;20209;-65
2023/04/25 11:15:28;;;;;;;3.13;2.93;;;;;;;11.16;nan;96278.66;4923698;28;20792;-66
2023/04/25 11:17:56;;;;;;;3.90;3.10;;;;;;;11.32;nan;96276.56;4904812;28;20507;-69
2023/04/25 11:20:28;;;;;;;2.73;2.53;;;;;;;11.29;nan;96273.31;4954005;28;20233;-67
2023/04/25 11:22:58;;;;;;;3.27;3.07;;;;;;;11.18;nan;96273.16;4949375;28;20240;-67
2023/04/25 11:25:26;;;;;;;2.40;2.30;;;;;;;11.20;nan;96279.06;4939772;28;20229;-66
2023/04/25 11:27:55;;;;;;;2.40;2.30;;;;;;;11.25;nan;96288.00;4948757;28;20593;-67
2023/04/25 11:30:24;;;;;;;2.53;2.30;;;;;;;11.20;nan;96284.34;4958125;28;20201;-66
2023/04/25 11:32:52;;;;;;;3.13;2.83;;;;;;;11.03;nan;96289.31;4898161;28;20272;-67
2023/04/25 11:35:22;;;;;;;2.63;2.43;;;;;;;10.95;nan;96275.25;4954814;28;20536;-66
2023/04/25 11:37:52;;;;;;;2.30;2.20;;;;;;;11.04;nan;96282.97;4955345;28;20515;-66
2023/04/25 11:40:19;;;;;;;4.67;3.90;;;;;;;10.89;nan;96277.91;4962853;28;20241;-67
2023/04/25 11:42:47;;;;;;;3.40;3.10;;;;;;;10.68;nan;96277.16;4931588;28;20213;-69
2023/04/25 11:45:26;;;;;;;3.10;2.90;;;;;;;10.60;nan;96277.38;4952389;28;20240;-69
2023/04/25 11:47:57;;;;;;;4.03;3.67;;;;;;;10.89;nan;96272.63;4898828;28;20420;-67
2023/04/25 11:50:24;;;;;;;3.20;3.00;;;;;;;11.63;nan;96267.81;4954153;28;20214;-65
2023/04/25 11:52:57;;;;;;;2.30;2.20;;;;;;;11.86;nan;96272.56;4954806;28;20213;-68
2023/04/25 11:55:25;;;;;;;2.20;2.10;;;;;;;11.63;nan;96270.47;4954155;28;20217;-66
2023/04/25 11:57:53;;;;;;;2.70;2.50;;;;;;;11.15;nan;96279.66;4927354;28;20275;-68
2023/04/25 12:00:22;;;;;;;2.87;2.67;;;;;;;10.83;nan;96279.59;4962234;28;20700;-66
2023/04/25 12:02:53;;;;;;;2.43;2.33;;;;;;;10.84;nan;96279.38;4884653;28;20325;-64
2023/04/25 12:05:25;;;;;;;2.80;2.60;;;;;;;10.93;nan;96284.44;4960403;28;21110;-65